Horrel Hill, South Carolina
Current Conditions -  °F | °C
As of 1:58 PM on Tuesday 21 Oct 2014 (Local Time) from KMMT Reporting Station
Clear Clear  
Wind Chill: 77°   Ceiling: Unl
Heat Index: 78°   Visibility: 10mi
Dew Point: 48°   Wind: 2mph
Humidity: 36%   Direction: NA
Pressure: 29.9"   Gusts: NA
Location:  33.8814°N, 80.8478°W
Report Text: KMMT 211758Z VRB02KT 10SM CLR 25/09 A2990 RMK AO2A SLP126 T02480088 10248 20086 57025
Loading
Personal Weather Stations






























Interactive Weather Map
Tropical Storm Tracking
New forecast layout! Learn more

10-Day Weather Forecast

Advertisements
Track Severe Weather on mobile